Time;durP1;ratioP1;P1;durP2;ratioP2;P2;SDS_P1;SDS_P2;PMS_P1;PMS_P2;Temp;Humidity;BMP_temperature;BMP_pressure;BME280_temperature;BME280_humidity;BME280_pressure;Samples;Min_cycle;Max_cycle;Signal;HPM_P1;HPM_P2
2023/01/07 00:01:44;;;;;;;13.38;8.05;;;6.40;93.00;;;;;;5032381;28;20049;-43
2023/01/07 00:04:14;;;;;;;14.68;7.72;;;6.40;93.10;;;;;;5033444;28;20108;-43
2023/01/07 00:06:46;;;;;;;13.18;7.32;;;6.40;93.00;;;;;;5017068;28;20072;-44
2023/01/07 00:09:17;;;;;;;17.60;8.82;;;6.50;93.00;;;;;;5013451;28;20060;-44
2023/01/07 00:11:44;;;;;;;13.35;7.55;;;6.50;93.00;;;;;;5013148;28;20029;-45
2023/01/07 00:14:13;;;;;;;15.13;9.20;;;6.60;93.10;;;;;;5014287;28;20038;-42
2023/01/07 00:16:39;;;;;;;18.73;8.60;;;6.70;93.10;;;;;;5033254;28;20068;-45
2023/01/07 00:19:07;;;;;;;15.80;9.77;;;6.70;93.10;;;;;;5033198;28;20116;-43
2023/01/07 00:21:34;;;;;;;15.98;9.95;;;6.70;93.00;;;;;;5022873;28;20080;-43
2023/01/07 00:24:02;;;;;;;16.83;10.30;;;6.80;93.10;;;;;;5023842;28;20041;-45
2023/01/07 00:26:31;;;;;;;19.48;12.13;;;6.90;93.20;;;;;;5028975;28;20022;-42
2023/01/07 00:28:59;;;;;;;23.27;12.50;;;6.90;93.40;;;;;;5033522;28;20052;-43
2023/01/07 00:31:33;;;;;;;21.58;13.18;;;6.90;93.50;;;;;;5027976;28;20037;-44
2023/01/07 00:36:33;;;;;;;23.17;13.93;;;7.10;93.70;;;;;;5013298;28;20060;-45
2023/01/07 00:39:06;;;;;;;21.13;14.55;;;7.10;93.70;;;;;;5012049;28;20069;-43
2023/01/07 00:41:34;;;;;;;20.15;15.48;;;7.10;93.80;;;;;;5019704;28;20029;-45
2023/01/07 00:44:07;;;;;;;21.70;15.05;;;7.20;93.90;;;;;;5015681;28;20033;-43
2023/01/07 00:46:33;;;;;;;27.08;15.82;;;7.20;93.90;;;;;;5039416;28;20057;-46
2023/01/07 00:49:00;;;;;;;25.50;16.50;;;7.20;94.00;;;;;;5051353;28;20025;-43
2023/01/07 00:51:27;;;;;;;25.45;14.98;;;7.30;94.10;;;;;;5033735;28;20024;-43
2023/01/07 00:53:54;;;;;;;22.92;15.38;;;7.30;94.10;;;;;;5049739;28;20036;-42
2023/01/07 00:56:20;;;;;;;24.55;16.30;;;7.30;94.20;;;;;;5028941;28;20090;-44
2023/01/07 00:58:46;;;;;;;24.80;16.83;;;7.30;94.10;;;;;;5030823;28;20064;-43
2023/01/07 01:01:13;;;;;;;27.25;16.48;;;7.30;94.10;;;;;;5017442;28;20049;-42
2023/01/07 01:03:41;;;;;;;25.38;17.70;;;7.40;94.20;;;;;;5011853;28;20113;-42
2023/01/07 01:06:14;;;;;;;27.27;19.33;;;7.40;94.20;;;;;;5012877;28;20109;-44
2023/01/07 01:08:45;;;;;;;30.67;19.05;;;7.40;94.30;;;;;;5014562;28;20026;-42
2023/01/07 01:11:13;;;;;;;30.10;18.58;;;7.40;94.30;;;;;;5012459;28;20116;-43
2023/01/07 01:13:41;;;;;;;28.50;18.67;;;7.40;94.40;;;;;;5021150;28;20463;-42
2023/01/07 01:16:15;;;;;;;31.83;20.95;;;7.40;94.50;;;;;;5030955;28;20343;-43
2023/01/07 01:18:41;;;;;;;32.53;21.17;;;7.50;94.70;;;;;;5031814;28;20350;-44
2023/01/07 01:21:12;;;;;;;29.58;22.10;;;7.50;94.60;;;;;;5027150;28;20045;-43
2023/01/07 01:23:39;;;;;;;31.90;21.17;;;7.40;94.60;;;;;;5032016;28;20026;-44
2023/01/07 01:26:14;;;;;;;31.80;22.40;;;7.50;94.70;;;;;;5031669;28;20749;-43
2023/01/07 01:28:45;;;;;;;31.77;21.17;;;7.50;94.80;;;;;;5031433;28;20143;-45
2023/01/07 01:31:12;;;;;;;33.88;23.45;;;7.60;94.80;;;;;;5030021;28;20366;-42
2023/01/07 01:33:39;;;;;;;32.97;21.00;;;7.60;94.80;;;;;;5032506;28;20044;-42
2023/01/07 01:36:09;;;;;;;33.70;21.45;;;7.60;94.80;;;;;;5030080;28;20029;-44
2023/01/07 01:38:36;;;;;;;33.28;23.30;;;7.60;94.90;;;;;;5026625;28;20100;-43
2023/01/07 01:41:04;;;;;;;30.58;21.98;;;7.60;94.90;;;;;;5031868;28;20455;-46
2023/01/07 01:43:36;;;;;;;32.63;22.63;;;7.60;94.90;;;;;;5024382;28;20025;-46
2023/01/07 01:46:17;;;;;;;35.38;24.77;;;7.70;95.00;;;;;;5030098;28;20091;-45
2023/01/07 01:48:55;;;;;;;35.17;24.20;;;7.70;95.00;;;;;;5032365;28;20025;-46
2023/01/07 01:51:26;;;;;;;36.53;23.35;;;7.80;95.10;;;;;;5031995;28;20672;-45
2023/01/07 01:53:55;;;;;;;35.13;23.98;;;7.80;95.10;;;;;;5027839;28;20028;-49
2023/01/07 01:56:28;;;;;;;33.75;24.38;;;7.90;95.10;;;;;;5030555;28;20037;-44
2023/01/07 01:59:01;;;;;;;37.25;22.88;;;7.90;95.20;;;;;;5018862;28;20029;-48
2023/01/07 02:01:27;;;;;;;37.40;24.65;;;7.90;95.20;;;;;;5022448;28;20049;-45
2023/01/07 02:03:56;;;;;;;32.17;23.02;;;8.00;95.30;;;;;;5014267;28;20034;-44
2023/01/07 02:06:32;;;;;;;32.55;24.83;;;8.00;95.20;;;;;;5016287;28;20022;-43
2023/01/07 02:08:58;;;;;;;34.72;24.15;;;7.90;95.30;;;;;;5015633;28;20111;-43
2023/01/07 02:11:43;;;;;;;33.15;23.60;;;8.00;95.40;;;;;;5019769;28;20033;-45
2023/01/07 02:14:57;;;;;;;35.67;24.23;;;8.00;95.40;;;;;;5035108;28;20175;-46
2023/01/07 02:17:26;;;;;;;36.72;25.27;;;8.10;95.40;;;;;;5024529;28;20052;-44
2023/01/07 02:20:29;;;;;;;33.92;25.65;;;8.10;95.40;;;;;;5038451;28;20335;-44
2023/01/07 02:23:04;;;;;;;37.38;25.88;;;8.10;95.50;;;;;;5032900;28;20014;-44
2023/01/07 02:25:51;;;;;;;34.67;25.10;;;8.20;95.60;;;;;;5031519;28;20083;-44
2023/01/07 02:29:16;;;;;;;35.20;24.13;;;8.30;95.60;;;;;;5031614;28;20025;-48
2023/01/07 02:31:55;;;;;;;35.63;24.80;;;8.30;95.70;;;;;;5029682;28;20045;-43
2023/01/07 02:34:40;;;;;;;35.85;24.27;;;8.40;95.70;;;;;;5031402;28;20025;-45
2023/01/07 02:37:29;;;;;;;34.85;25.17;;;8.40;95.70;;;;;;5030864;28;20053;-45
2023/01/07 02:40:21;;;;;;;;;;;8.40;95.70;;;;;;5029417;28;20029;-46
2023/01/07 02:43:17;;;;;;;34.78;24.40;;;8.40;95.70;;;;;;5005460;28;20349;-44
2023/01/07 02:46:05;;;;;;;36.45;25.98;;;8.50;95.70;;;;;;5019059;28;20087;-48
2023/01/07 02:48:34;;;;;;;33.25;23.83;;;8.50;95.80;;;;;;5015385;28;20061;-45
2023/01/07 02:51:01;;;;;;;37.38;26.17;;;8.60;95.80;;;;;;5015428;28;20451;-46
2023/01/07 02:53:31;;;;;;;39.08;26.10;;;8.60;95.80;;;;;;5015243;28;20036;-46
2023/01/07 02:56:16;;;;;;;;;;;8.60;95.90;;;;;;5015815;28;20101;-45
2023/01/07 02:59:19;;;;;;;40.38;26.42;;;8.70;95.90;;;;;;5042584;28;19909;-47
2023/01/07 03:02:03;;;;;;;36.22;25.20;;;8.80;95.90;;;;;;5038819;28;20125;-47
2023/01/07 03:04:48;;;;;;;39.95;27.13;;;8.80;95.90;;;;;;5035022;28;20124;-45
2023/01/07 03:07:35;;;;;;;36.33;24.83;;;8.80;95.90;;;;;;5029929;28;20371;-45
2023/01/07 03:10:45;;;;;;;37.72;25.08;;;8.90;96.00;;;;;;5034616;28;20032;-45
2023/01/07 03:13:18;;;;;;;34.70;25.67;;;8.90;96.00;;;;;;5017670;28;20188;-44
2023/01/07 03:16:06;;;;;;;38.85;25.63;;;8.90;96.00;;;;;;4997904;28;20037;-44
2023/01/07 03:18:39;;;;;;;36.55;24.85;;;9.00;96.00;;;;;;5014549;28;20029;-47
2023/01/07 03:21:11;;;;;;;36.03;25.58;;;9.00;96.00;;;;;;4997508;28;20046;-47
2023/01/07 03:23:45;;;;;;;35.42;26.27;;;9.10;96.10;;;;;;5013438;28;20712;-53
2023/01/07 03:26:16;;;;;;;36.67;26.15;;;9.10;96.10;;;;;;5013889;28;20030;-50
2023/01/07 03:28:44;;;;;;;41.50;27.27;;;9.10;96.10;;;;;;5019535;28;20029;-50
2023/01/07 03:31:14;;;;;;;38.42;26.13;;;9.20;96.10;;;;;;5031550;28;20655;-47
2023/01/07 03:34:00;;;;;;;;;;;9.20;96.20;;;;;;5019008;28;20336;-52
2023/01/07 03:36:40;;;;;;;32.95;24.05;;;9.20;96.10;;;;;;5013434;28;20224;-51
2023/01/07 03:39:12;;;;;;;34.28;24.40;;;9.20;96.20;;;;;;5012761;28;20032;-49
2023/01/07 03:44:25;;;;;;;36.08;23.90;;;9.20;96.20;;;;;;5013738;28;20121;-51
2023/01/07 03:46:54;;;;;;;34.45;25.15;;;9.30;96.20;;;;;;5019504;28;20027;-49
2023/01/07 03:49:21;;;;;;;36.72;25.65;;;9.30;96.20;;;;;;5032391;28;20352;-51
2023/01/07 03:51:48;;;;;;;34.58;24.85;;;9.40;96.30;;;;;;5012562;28;20456;-52
2023/01/07 03:54:17;;;;;;;34.97;24.38;;;9.40;96.30;;;;;;5035987;28;20074;-51
2023/01/07 03:56:43;;;;;;;33.33;24.37;;;9.40;96.30;;;;;;5024066;28;20355;-52
2023/01/07 03:59:09;;;;;;;35.90;25.10;;;9.50;96.30;;;;;;5031607;28;20524;-51
2023/01/07 04:01:35;;;;;;;34.95;25.92;;;9.50;96.30;;;;;;5030582;28;20108;-55
2023/01/07 04:04:01;;;;;;;35.10;24.38;;;9.50;96.30;;;;;;5023586;28;20375;-55
2023/01/07 04:06:30;;;;;;;34.97;24.08;;;9.50;96.30;;;;;;5013562;28;20022;-52
2023/01/07 04:08:57;;;;;;;31.17;23.83;;;9.60;96.30;;;;;;5013927;28;20030;-53
2023/01/07 04:11:25;;;;;;;34.97;24.45;;;9.60;96.40;;;;;;5022507;28;20146;-53
2023/01/07 04:13:52;;;;;;;36.80;24.08;;;9.60;96.40;;;;;;5032359;28;20100;-53
2023/01/07 04:16:21;;;;;;;31.52;22.63;;;9.60;96.40;;;;;;5013085;28;20451;-53
2023/01/07 04:18:47;;;;;;;32.92;24.73;;;9.70;96.40;;;;;;5030299;28;20037;-53
2023/01/07 04:21:14;;;;;;;35.70;25.33;;;9.70;96.40;;;;;;5031781;28;20760;-51
2023/01/07 04:23:40;;;;;;;32.67;23.50;;;9.70;96.40;;;;;;5027273;28;20079;-50
2023/01/07 04:26:05;;;;;;;33.10;24.05;;;9.70;96.40;;;;;;5026512;28;20025;-50
2023/01/07 04:28:32;;;;;;;29.95;22.02;;;9.70;96.40;;;;;;5032812;28;20083;-54
2023/01/07 04:30:59;;;;;;;32.65;23.80;;;9.80;96.40;;;;;;5018644;28;20036;-51
2023/01/07 04:33:25;;;;;;;31.60;23.95;;;9.80;96.40;;;;;;5024816;28;20026;-48
2023/01/07 04:35:52;;;;;;;33.60;24.52;;;9.80;96.40;;;;;;5032680;28;20596;-53
2023/01/07 04:38:19;;;;;;;29.15;22.67;;;9.80;96.40;;;;;;5015115;28;20432;-50
2023/01/07 04:40:47;;;;;;;32.00;24.02;;;9.80;96.40;;;;;;5030510;28;20029;-49
2023/01/07 04:43:14;;;;;;;29.60;23.48;;;9.80;96.40;;;;;;5032612;28;20133;-48
2023/01/07 04:45:41;;;;;;;31.33;23.67;;;9.80;96.50;;;;;;5032571;28;20032;-51
2023/01/07 04:48:07;;;;;;;31.08;23.80;;;9.90;96.40;;;;;;5021904;28;20033;-48
2023/01/07 04:50:34;;;;;;;33.92;23.98;;;9.90;96.40;;;;;;5032436;28;20037;-51
2023/01/07 04:53:01;;;;;;;32.30;24.23;;;9.90;96.50;;;;;;5027958;28;20034;-51
2023/01/07 04:55:27;;;;;;;31.15;23.58;;;9.90;96.50;;;;;;5011762;28;20026;-47
2023/01/07 04:57:54;;;;;;;34.88;24.73;;;9.90;96.50;;;;;;5012909;28;20308;-49
2023/01/07 05:00:21;;;;;;;30.38;22.63;;;9.90;96.50;;;;;;5014186;28;20061;-49
2023/01/07 05:02:49;;;;;;;30.77;23.92;;;9.90;96.40;;;;;;5015594;28;20036;-47
2023/01/07 05:05:17;;;;;;;33.97;23.58;;;9.90;96.50;;;;;;5030430;28;20033;-47
2023/01/07 05:07:47;;;;;;;33.15;23.95;;;9.90;96.50;;;;;;5031226;28;20041;-48
2023/01/07 05:10:13;;;;;;;32.65;24.42;;;9.90;96.50;;;;;;5027761;28;20030;-47
2023/01/07 05:12:40;;;;;;;32.10;24.55;;;9.90;96.50;;;;;;5012021;28;20125;-49
2023/01/07 05:15:07;;;;;;;35.40;25.00;;;9.90;96.50;;;;;;5012882;28;20105;-49
2023/01/07 05:17:35;;;;;;;35.42;23.98;;;9.90;96.40;;;;;;5022243;28;20612;-49
2023/01/07 05:20:03;;;;;;;31.42;24.10;;;9.90;96.40;;;;;;5016412;28;20029;-51
2023/01/07 05:22:32;;;;;;;31.83;24.27;;;9.90;96.50;;;;;;5012953;28;20463;-46
2023/01/07 05:24:59;;;;;;;32.67;24.83;;;9.90;96.40;;;;;;5015868;28;20026;-47
2023/01/07 05:27:25;;;;;;;30.85;23.90;;;9.90;96.50;;;;;;5011570;28;20448;-47
2023/01/07 05:29:52;;;;;;;34.20;25.52;;;9.90;96.50;;;;;;5015033;28;20030;-52
2023/01/07 05:32:19;;;;;;;33.80;25.52;;;9.90;96.50;;;;;;5032002;28;20072;-48
2023/01/07 05:34:48;;;;;;;34.88;25.90;;;9.90;96.50;;;;;;5031544;28;20025;-47
2023/01/07 05:37:15;;;;;;;29.48;23.70;;;9.90;96.50;;;;;;5030834;28;20029;-46
2023/01/07 05:39:44;;;;;;;34.35;26.42;;;9.90;96.50;;;;;;5017666;28;20451;-48
2023/01/07 05:42:11;;;;;;;32.05;25.33;;;9.90;96.40;;;;;;5022629;28;20073;-45
2023/01/07 05:44:37;;;;;;;39.28;26.38;;;9.90;96.50;;;;;;5034492;28;20036;-46
2023/01/07 05:47:06;;;;;;;37.60;25.85;;;9.90;96.50;;;;;;5023063;28;20029;-48
2023/01/07 05:49:34;;;;;;;34.95;25.95;;;9.90;96.50;;;;;;5016262;28;20791;-48
2023/01/07 05:52:00;;;;;;;35.30;25.33;;;10.00;96.40;;;;;;5016096;28;20042;-46
2023/01/07 05:54:27;;;;;;;31.08;26.05;;;9.90;96.40;;;;;;5016320;28;20096;-48
2023/01/07 05:56:56;;;;;;;34.28;25.63;;;9.90;96.40;;;;;;5021199;28;20350;-50
2023/01/07 05:59:22;;;;;;;36.10;27.15;;;9.90;96.40;;;;;;5029909;28;20037;-46
2023/01/07 06:01:49;;;;;;;32.95;25.75;;;9.90;96.40;;;;;;5031322;28;20531;-45
2023/01/07 06:04:15;;;;;;;37.67;26.55;;;9.90;96.40;;;;;;5029701;28;20025;-47
2023/01/07 06:06:42;;;;;;;31.25;25.50;;;9.90;96.40;;;;;;5033888;28;20443;-49
2023/01/07 06:09:10;;;;;;;35.58;24.58;;;9.90;96.40;;;;;;5032239;28;20105;-45
2023/01/07 06:11:39;;;;;;;33.47;26.58;;;9.90;96.30;;;;;;5034656;28;20064;-45
2023/01/07 06:14:06;;;;;;;31.42;25.15;;;9.90;96.30;;;;;;5031512;28;20042;-46
2023/01/07 06:16:33;;;;;;;32.35;25.05;;;9.90;96.30;;;;;;5033257;28;20037;-45
2023/01/07 06:19:00;;;;;;;33.40;24.90;;;9.90;96.30;;;;;;5035236;28;20327;-50
2023/01/07 06:21:27;;;;;;;34.08;25.67;;;9.90;96.30;;;;;;5032006;28;20530;-49
2023/01/07 06:23:55;;;;;;;36.10;26.15;;;9.90;96.30;;;;;;5034285;28;20025;-45
2023/01/07 06:26:22;;;;;;;32.25;24.95;;;9.90;96.30;;;;;;5033882;28;20017;-48
2023/01/07 06:28:51;;;;;;;31.67;24.83;;;9.90;96.30;;;;;;5034038;28;20316;-47
2023/01/07 06:31:18;;;;;;;30.85;24.42;;;9.90;96.20;;;;;;5032685;28;20033;-44
2023/01/07 06:33:44;;;;;;;29.73;24.58;;;9.90;96.20;;;;;;5032920;28;20025;-47
2023/01/07 06:36:11;;;;;;;27.13;23.38;;;9.90;96.20;;;;;;5033551;28;20022;-46
2023/01/07 06:38:41;;;;;;;31.75;24.70;;;9.90;96.20;;;;;;5031767;28;20490;-47
2023/01/07 06:41:10;;;;;;;27.75;23.75;;;9.90;96.20;;;;;;5034441;28;20041;-45
2023/01/07 06:43:37;;;;;;;29.85;24.15;;;9.90;96.10;;;;;;5033600;28;20380;-46
2023/01/07 06:46:06;;;;;;;34.90;26.30;;;9.90;96.10;;;;;;5033334;28;20031;-44
2023/01/07 06:48:33;;;;;;;30.73;25.95;;;9.90;96.10;;;;;;5031307;28;20033;-49
2023/01/07 06:50:59;;;;;;;28.77;24.17;;;9.90;96.10;;;;;;5033145;28;20429;-45
2023/01/07 06:53:29;;;;;;;32.80;24.00;;;9.90;96.00;;;;;;5033147;28;20486;-49
2023/01/07 06:55:55;;;;;;;26.10;21.83;;;9.90;96.00;;;;;;5029734;28;20032;-43
2023/01/07 06:58:21;;;;;;;26.63;23.05;;;9.90;96.00;;;;;;5033560;28;20342;-46
2023/01/07 07:00:48;;;;;;;30.45;22.83;;;9.90;95.90;;;;;;5031665;28;20132;-43
2023/01/07 07:03:15;;;;;;;26.20;23.15;;;9.90;95.90;;;;;;5031428;28;20040;-47
2023/01/07 07:05:44;;;;;;;28.02;21.90;;;9.90;95.90;;;;;;5032237;28;20017;-46
2023/01/07 07:08:14;;;;;;;24.80;22.07;;;9.90;95.80;;;;;;5034180;28;20049;-49
2023/01/07 07:10:41;;;;;;;25.75;20.88;;;9.90;95.80;;;;;;5033724;28;20479;-45
2023/01/07 07:13:08;;;;;;;25.08;20.05;;;9.90;95.80;;;;;;5025756;28;20030;-43
2023/01/07 07:15:34;;;;;;;23.90;20.40;;;9.90;95.70;;;;;;5033664;28;20417;-44
2023/01/07 07:18:04;;;;;;;21.92;19.25;;;9.90;95.70;;;;;;5021988;28;20034;-46
2023/01/07 07:20:31;;;;;;;22.75;19.73;;;9.90;95.70;;;;;;5023419;28;20045;-46
2023/01/07 07:22:58;;;;;;;23.80;21.30;;;9.90;95.70;;;;;;5016415;28;20022;-45
2023/01/07 07:25:25;;;;;;;23.63;20.67;;;9.90;95.60;;;;;;5025539;28;20032;-46
2023/01/07 07:27:51;;;;;;;23.00;20.55;;;9.90;95.60;;;;;;5031291;28;20029;-43
2023/01/07 07:30:19;;;;;;;23.48;19.55;;;9.90;95.60;;;;;;5028419;28;20053;-48
2023/01/07 07:32:45;;;;;;;21.67;17.75;;;9.90;95.60;;;;;;5022137;28;20021;-44
2023/01/07 07:35:12;;;;;;;21.42;18.33;;;9.90;95.40;;;;;;5031419;28;20133;-43
2023/01/07 07:37:41;;;;;;;20.02;17.83;;;9.90;95.40;;;;;;5033759;28;20026;-45
2023/01/07 07:40:09;;;;;;;21.60;17.95;;;9.90;95.40;;;;;;5031291;28;20055;-44
2023/01/07 07:42:37;;;;;;;22.38;18.45;;;9.90;95.30;;;;;;5031740;28;20025;-45
2023/01/07 07:45:05;;;;;;;22.63;18.63;;;9.90;95.30;;;;;;5018286;28;20026;-43
2023/01/07 07:47:34;;;;;;;23.23;16.80;;;9.90;95.30;;;;;;5022339;28;20124;-48
2023/01/07 07:49:59;;;;;;;18.73;16.88;;;9.90;95.20;;;;;;5033125;28;20037;-46
2023/01/07 07:52:25;;;;;;;20.60;16.60;;;9.90;95.20;;;;;;5033529;28;20109;-43
2023/01/07 07:54:54;;;;;;;19.95;17.83;;;9.90;95.20;;;;;;5017680;28;20034;-43
2023/01/07 07:57:20;;;;;;;18.63;16.60;;;9.90;95.10;;;;;;5029571;28;20033;-43
2023/01/07 07:59:47;;;;;;;17.38;14.40;;;9.90;95.10;;;;;;5026959;28;20526;-47
2023/01/07 08:02:15;;;;;;;21.65;15.82;;;9.90;95.10;;;;;;5026416;28;20060;-46
2023/01/07 08:04:41;;;;;;;19.35;15.88;;;9.90;95.00;;;;;;5032732;28;20455;-46
2023/01/07 08:07:08;;;;;;;20.40;15.85;;;9.90;95.00;;;;;;5032990;28;20025;-43
2023/01/07 08:09:35;;;;;;;17.98;16.08;;;9.90;95.00;;;;;;5028827;28;20109;-44
2023/01/07 08:12:06;;;;;;;16.90;13.80;;;9.90;95.00;;;;;;5033073;28;20668;-48
2023/01/07 08:14:33;;;;;;;16.15;13.32;;;9.90;94.90;;;;;;5032551;28;20108;-44
2023/01/07 08:16:58;;;;;;;17.75;14.82;;;9.90;94.80;;;;;;5029316;28;20040;-44
2023/01/07 08:19:27;;;;;;;15.10;13.60;;;9.90;94.80;;;;;;5029930;28;20029;-46
2023/01/07 08:21:56;;;;;;;18.87;13.97;;;10.00;94.80;;;;;;5031684;28;20045;-43
2023/01/07 08:24:22;;;;;;;16.02;14.10;;;10.00;94.70;;;;;;5029292;28;20272;-43
2023/01/07 08:26:49;;;;;;;14.60;13.13;;;10.00;94.60;;;;;;5024398;28;20029;-47
2023/01/07 08:29:17;;;;;;;17.00;13.40;;;10.00;94.60;;;;;;5027215;28;20030;-46
2023/01/07 08:31:45;;;;;;;13.85;12.40;;;10.00;94.60;;;;;;5027757;28;20045;-44
2023/01/07 08:34:12;;;;;;;15.95;12.07;;;10.00;94.50;;;;;;5025392;28;20047;-44
2023/01/07 08:36:38;;;;;;;14.25;12.48;;;10.00;94.40;;;;;;5029936;28;20025;-43
2023/01/07 08:39:05;;;;;;;15.05;12.65;;;10.00;94.40;;;;;;5031524;28;20036;-45
2023/01/07 08:41:32;;;;;;;12.98;11.50;;;10.00;94.40;;;;;;5030442;28;20076;-43
2023/01/07 08:43:59;;;;;;;14.82;12.70;;;10.00;94.40;;;;;;5022149;28;20068;-43
2023/01/07 08:46:26;;;;;;;13.55;11.95;;;10.00;94.30;;;;;;5023350;28;20466;-42
2023/01/07 08:48:55;;;;;;;13.93;12.48;;;10.00;94.20;;;;;;5015930;28;20096;-42
2023/01/07 08:51:24;;;;;;;12.95;11.60;;;10.00;94.20;;;;;;5018700;28;20044;-46
2023/01/07 08:53:51;;;;;;;11.63;10.50;;;10.00;94.10;;;;;;5027669;28;20454;-45
2023/01/07 08:56:17;;;;;;;11.55;10.35;;;10.10;94.10;;;;;;5021272;28;20038;-43
2023/01/07 08:58:44;;;;;;;15.57;11.43;;;10.00;94.00;;;;;;5016025;28;20125;-45
2023/01/07 09:01:11;;;;;;;14.82;11.50;;;10.10;94.00;;;;;;5030645;28;20049;-43
2023/01/07 09:03:38;;;;;;;12.40;10.80;;;10.10;94.00;;;;;;5032700;28;20026;-43
2023/01/07 09:06:07;;;;;;;13.10;10.05;;;10.10;93.90;;;;;;5013377;28;20538;-44
2023/01/07 09:08:37;;;;;;;12.02;10.35;;;10.10;93.80;;;;;;5012913;28;20038;-50
2023/01/07 09:11:04;;;;;;;11.75;10.55;;;10.10;93.80;;;;;;5013095;28;20084;-44
2023/01/07 09:13:31;;;;;;;11.90;10.13;;;10.10;93.80;;;;;;5016934;28;20034;-43
2023/01/07 09:15:59;;;;;;;11.88;10.60;;;10.10;93.70;;;;;;5013836;28;20030;-43
2023/01/07 09:18:31;;;;;;;10.93;9.70;;;10.10;93.70;;;;;;5031476;28;20056;-45
2023/01/07 09:21:00;;;;;;;12.07;10.75;;;10.10;93.60;;;;;;5032626;28;20037;-43
2023/01/07 09:23:26;;;;;;;15.05;10.48;;;10.10;93.50;;;;;;5027044;28;20025;-44
2023/01/07 09:25:53;;;;;;;11.68;10.50;;;10.10;93.50;;;;;;5013714;28;20099;-46
2023/01/07 09:28:20;;;;;;;11.23;9.00;;;10.20;93.50;;;;;;5016543;28;20056;-43
2023/01/07 09:30:46;;;;;;;10.48;9.20;;;10.10;93.30;;;;;;5025368;28;20419;-45
2023/01/07 09:33:16;;;;;;;12.13;8.82;;;10.10;93.30;;;;;;5032304;28;20029;-45
2023/01/07 09:35:42;;;;;;;10.40;8.35;;;10.10;93.20;;;;;;5021489;28;20121;-45
2023/01/07 09:38:09;;;;;;;10.48;8.55;;;10.10;93.10;;;;;;5022534;28;20120;-42
2023/01/07 09:40:39;;;;;;;10.07;8.23;;;10.20;93.00;;;;;;5013845;28;20351;-45
2023/01/07 09:43:29;;;;;;;9.00;8.07;;;10.20;93.00;;;;;;5012736;28;20117;-48
2023/01/07 09:45:57;;;;;;;;;;;10.20;92.90;;;;;;5019873;28;20029;-44
2023/01/07 09:48:31;;;;;;;9.75;8.13;;;10.20;92.80;;;;;;5032531;28;20235;-43
2023/01/07 09:51:19;;;;;;;8.93;7.55;;;10.20;92.80;;;;;;5031524;28;20045;-43
2023/01/07 09:53:49;;;;;;;9.32;8.30;;;10.30;92.80;;;;;;5031253;28;20423;-45
2023/01/07 09:56:27;;;;;;;9.02;8.10;;;10.40;92.60;;;;;;5018453;28;20052;-45
2023/01/07 09:58:56;;;;;;;8.43;7.50;;;10.40;92.40;;;;;;5026789;28;20025;-44
2023/01/07 10:02:13;;;;;;;9.27;7.50;;;10.40;92.40;;;;;;5030787;28;20698;-45
2023/01/07 10:05:19;;;;;;;9.80;7.70;;;10.50;92.40;;;;;;4994033;28;20089;-45
2023/01/07 10:08:01;;;;;;;8.00;6.93;;;10.50;92.10;;;;;;5025411;28;20033;-47
2023/01/07 10:10:44;;;;;;;7.95;7.15;;;10.60;91.90;;;;;;5031248;28;20033;-49
2023/01/07 10:13:39;;;;;;;8.73;7.35;;;10.60;91.70;;;;;;5031119;28;20039;-43
2023/01/07 10:16:29;;;;;;;11.35;6.80;;;10.60;91.60;;;;;;5021860;28;21853;-44
2023/01/07 10:19:03;;;;;;;;;;;10.70;91.30;;;;;;5031299;28;20033;-45
2023/01/07 10:21:50;;;;;;;7.90;6.38;;;10.70;91.00;;;;;;5031115;28;19928;-46
2023/01/07 10:24:32;;;;;;;7.75;6.75;;;10.70;90.90;;;;;;5027383;28;20436;-45
2023/01/07 10:27:12;;;;;;;10.32;7.35;;;10.60;90.90;;;;;;5015694;28;20037;-43
2023/01/07 10:29:47;;;;;;;;;;;10.60;90.80;;;;;;5025533;28;20091;-47
2023/01/07 10:32:23;;;;;;;7.90;7.10;;;10.60;90.80;;;;;;5029685;28;19909;-45
2023/01/07 10:34:57;;;;;;;11.88;7.40;;;10.60;90.90;;;;;;5035104;28;20021;-44
2023/01/07 10:37:44;;;;;;;9.38;7.03;;;10.60;90.70;;;;;;5034001;28;20049;-44
2023/01/07 10:40:49;;;;;;;6.80;5.75;;;10.50;90.60;;;;;;5015204;28;20065;-46
2023/01/07 10:43:45;;;;;;;10.00;8.30;;;10.50;90.80;;;;;;5032290;28;20083;-44
2023/01/07 10:46:41;;;;;;;7.70;6.75;;;10.50;90.70;;;;;;5017784;28;20164;-45
2023/01/07 10:49:37;;;;;;;10.93;7.90;;;10.50;90.60;;;;;;5014010;28;20026;-44
2023/01/07 10:52:17;;;;;;;7.47;6.45;;;10.50;90.80;;;;;;5014840;28;20117;-44
2023/01/07 10:55:21;;;;;;;9.50;6.82;;;10.50;90.80;;;;;;5017970;28;20034;-45
2023/01/07 10:57:50;;;;;;;7.40;5.47;;;10.50;90.80;;;;;;5016556;28;20038;-45
2023/01/07 11:00:17;;;;;;;8.20;6.25;;;10.60;90.50;;;;;;5028035;28;20092;-45
2023/01/07 11:02:51;;;;;;;7.53;5.68;;;10.70;90.40;;;;;;5026138;28;20041;-47
2023/01/07 11:05:20;;;;;;;9.25;6.18;;;10.70;90.00;;;;;;5031978;28;20040;-47
2023/01/07 11:08:03;;;;;;;9.13;6.20;;;10.70;89.80;;;;;;5034833;28;20033;-45
2023/01/07 11:10:35;;;;;;;8.93;6.18;;;10.80;89.70;;;;;;5046269;28;20537;-46
2023/01/07 11:13:30;;;;;;;7.18;4.78;;;10.70;89.70;;;;;;5021459;28;20351;-47
2023/01/07 11:16:09;;;;;;;5.57;4.70;;;10.70;89.70;;;;;;5031621;28;20478;-45
2023/01/07 11:18:46;;;;;;;7.75;5.13;;;10.80;89.50;;;;;;5033497;28;20439;-46
2023/01/07 11:21:34;;;;;;;6.32;4.63;;;10.90;89.20;;;;;;5031542;28;20033;-46
2023/01/07 11:24:22;;;;;;;6.10;4.70;;;10.90;89.10;;;;;;5034192;28;20494;-47
2023/01/07 11:26:49;;;;;;;6.10;4.13;;;10.90;88.70;;;;;;5032130;28;20115;-46
2023/01/07 11:29:25;;;;;;;6.00;4.05;;;10.90;88.40;;;;;;5020603;28;20029;-45
2023/01/07 11:31:55;;;;;;;6.20;4.07;;;11.00;88.40;;;;;;5031914;28;20036;-47
2023/01/07 11:34:49;;;;;;;5.22;3.83;;;11.00;88.20;;;;;;5045975;28;20020;-46
2023/01/07 11:37:40;;;;;;;6.07;3.80;;;11.00;88.10;;;;;;5031458;28;20029;-48
2023/01/07 11:40:14;;;;;;;4.88;3.65;;;11.00;88.00;;;;;;5037939;28;20079;-46
2023/01/07 11:43:03;;;;;;;5.93;4.00;;;11.10;88.10;;;;;;5036020;28;20029;-47
2023/01/07 11:45:37;;;;;;;4.75;3.70;;;11.00;87.90;;;;;;5032246;28;20025;-49
2023/01/07 11:48:24;;;;;;;5.00;3.25;;;10.90;87.90;;;;;;5030255;28;20358;-44
2023/01/07 11:51:00;;;;;;;7.10;3.33;;;10.90;88.00;;;;;;5033529;28;20041;-48
2023/01/07 11:53:49;;;;;;;5.32;3.67;;;10.90;88.10;;;;;;5019960;28;20044;-51
2023/01/07 11:56:32;;;;;;;4.93;3.35;;;10.90;88.00;;;;;;5035631;28;20037;-46
2023/01/07 11:59:29;;;;;;;5.13;4.13;;;10.90;88.10;;;;;;5035417;28;20030;-48
2023/01/07 12:01:58;;;;;;;7.80;5.65;;;10.90;88.00;;;;;;5032898;28;20371;-51
2023/01/07 12:04:42;;;;;;;6.82;5.80;;;10.90;87.70;;;;;;5030096;28;20355;-51
2023/01/07 12:07:16;;;;;;;16.38;11.23;;;10.90;88.00;;;;;;5032323;28;20355;-48
2023/01/07 12:09:44;;;;;;;11.07;6.00;;;10.90;88.10;;;;;;5032207;28;20017;-49
2023/01/07 12:12:37;;;;;;;9.05;5.25;;;10.90;87.80;;;;;;5028001;28;20044;-48
2023/01/07 12:15:30;;;;;;;8.10;4.85;;;10.90;87.60;;;;;;5028440;28;20040;-46
2023/01/07 12:18:07;;;;;;;8.80;3.75;;;10.90;87.30;;;;;;5029486;28;20037;-50
2023/01/07 12:21:15;;;;;;;4.80;2.78;;;10.80;87.40;;;;;;5027472;28;20112;-46
2023/01/07 12:24:07;;;;;;;7.13;4.60;;;10.90;87.00;;;;;;5021399;28;20029;-47
2023/01/07 12:27:04;;;;;;;5.13;2.72;;;10.80;86.90;;;;;;5024735;28;20040;-50
2023/01/07 12:29:50;;;;;;;6.47;4.00;;;10.80;86.70;;;;;;5027054;28;20104;-49
2023/01/07 12:32:34;;;;;;;8.55;5.82;;;10.80;86.60;;;;;;5023443;28;20030;-49
2023/01/07 12:35:13;;;;;;;5.88;3.55;;;10.80;86.90;;;;;;5029993;28;20120;-47
2023/01/07 12:38:08;;;;;;;4.85;2.60;;;10.80;86.60;;;;;;5031787;28;20416;-48
2023/01/07 12:40:55;;;;;;;4.53;2.72;;;10.80;86.70;;;;;;5032996;28;20439;-49
2023/01/07 12:43:30;;;;;;;5.60;2.40;;;10.80;86.70;;;;;;5024158;28;20033;-47
2023/01/07 12:45:59;;;;;;;5.45;2.72;;;10.70;86.20;;;;;;5014257;28;20033;-47
2023/01/07 12:48:55;;;;;;;6.38;2.88;;;10.80;86.30;;;;;;5030590;28;20033;-50
2023/01/07 12:51:39;;;;;;;4.47;2.65;;;10.80;86.10;;;;;;5012855;28;20069;-48
2023/01/07 12:54:29;;;;;;;3.08;1.88;;;10.80;86.30;;;;;;5019286;28;20025;-47
2023/01/07 12:57:28;;;;;;;4.63;2.15;;;10.70;86.20;;;;;;5023267;28;20029;-48
2023/01/07 13:00:20;;;;;;;5.35;2.10;;;10.80;86.40;;;;;;5020626;28;20446;-46
2023/01/07 13:02:58;;;;;;;5.82;2.25;;;10.80;86.10;;;;;;5027144;28;20053;-47
2023/01/07 13:05:50;;;;;;;4.03;2.25;;;10.80;85.40;;;;;;5012640;28;20014;-46
2023/01/07 13:08:44;;;;;;;3.60;1.90;;;10.80;85.10;;;;;;5012976;28;20168;-46
2023/01/07 13:12:41;;;;;;;3.22;1.75;;;10.90;84.90;;;;;;5012487;28;20041;-47
2023/01/07 13:14:17;;;;;;;3.03;1.75;;;10.90;85.30;;;;;;5018134;28;20042;-45
2023/01/07 13:16:44;;;;;;;2.75;1.58;;;10.80;85.20;;;;;;5020911;28;20030;-48
2023/01/07 13:19:13;;;;;;;4.13;1.90;;;10.90;85.10;;;;;;5031340;28;20107;-46